createdAt,value
2022-12-15T00:03:34.477Z,-4.73
2022-12-15T00:07:54.987Z,-4.52
2022-12-15T00:12:15.286Z,-4.16
2022-12-15T00:16:35.614Z,-4.12
2022-12-15T00:20:56.039Z,-4.37
2022-12-15T00:25:16.231Z,-4.39
2022-12-15T00:29:36.626Z,-4.75
2022-12-15T00:33:56.655Z,-4.75
2022-12-15T00:38:16.944Z,-4.23
2022-12-15T00:42:18.351Z,-4.10
2022-12-15T00:46:38.555Z,-4.67
2022-12-15T00:50:54.031Z,-4.98
2022-12-15T00:55:13.787Z,-4.89
2022-12-15T00:59:34.406Z,-4.95
2022-12-15T01:03:54.294Z,-4.65
2022-12-15T01:08:14.514Z,-4.51
2022-12-15T01:12:34.830Z,-4.60
2022-12-15T01:16:55.351Z,-4.19
2022-12-15T01:21:02.407Z,-4.82
2022-12-15T01:25:05.579Z,-4.36
2022-12-15T01:29:06.996Z,-4.32
2022-12-15T01:33:08.404Z,-4.62
2022-12-15T01:37:09.850Z,-4.57
2022-12-15T01:41:12.376Z,-4.53
2022-12-15T01:45:29.030Z,-4.94
2022-12-15T01:49:32.310Z,-4.62
2022-12-15T01:53:39.588Z,-4.81
2022-12-15T01:57:41.482Z,-5.11
2022-12-15T02:01:42.978Z,-4.82
2022-12-15T02:05:46.619Z,-4.68
2022-12-15T02:09:50.216Z,-4.72
2022-12-15T02:14:00.956Z,-4.50
2022-12-15T02:18:13.247Z,-4.49
2022-12-15T02:22:17.554Z,-4.66
2022-12-15T02:26:51.446Z,-4.42
2022-12-15T02:31:21.730Z,-4.16
2022-12-15T02:35:37.187Z,-4.33
2022-12-15T02:39:38.633Z,-5.04
2022-12-15T02:43:40.119Z,-4.74
2022-12-15T02:47:56.259Z,-4.95
2022-12-15T02:52:14.091Z,-4.41
2022-12-15T02:56:25.411Z,-4.32
2022-12-15T03:00:28.439Z,-4.15
2022-12-15T03:04:33.670Z,-4.71
2022-12-15T03:08:35.148Z,-5.13
2022-12-15T03:12:36.589Z,-4.48
2022-12-15T03:16:38.057Z,-4.53
2022-12-15T03:20:39.751Z,-4.55
2022-12-15T03:24:41.155Z,-4.80
2022-12-15T03:28:42.649Z,-4.50
2022-12-15T03:32:44.185Z,-4.44
2022-12-15T03:36:45.831Z,-4.17
2022-12-15T03:40:47.239Z,-4.35
2022-12-15T03:44:48.649Z,-4.57
2022-12-15T03:48:50.547Z,-4.69
2022-12-15T03:52:54.071Z,-4.78
2022-12-15T03:56:55.492Z,-4.78
2022-12-15T04:00:57.063Z,-4.21
2022-12-15T04:04:59.001Z,-4.08
2022-12-15T04:09:00.513Z,-3.96
2022-12-15T04:13:08.002Z,-3.92
2022-12-15T04:17:10.472Z,-3.67
2022-12-15T04:21:11.955Z,-3.94
2022-12-15T04:25:37.611Z,-3.94
2022-12-15T04:29:57.839Z,-3.92
2022-12-15T04:34:19.679Z,-3.51
2022-12-15T04:38:42.680Z,-3.65
2022-12-15T04:43:10.217Z,-3.47
2022-12-15T04:47:30.296Z,-3.43
2022-12-15T04:51:51.992Z,-3.37
2022-12-15T04:56:17.975Z,-3.45
2022-12-15T05:00:38.628Z,-4.02
2022-12-15T05:04:58.675Z,-3.88
2022-12-15T05:09:18.867Z,-3.63
2022-12-15T05:13:38.704Z,-4.42
2022-12-15T05:17:58.801Z,-4.33
2022-12-15T05:22:19.159Z,-3.87
2022-12-15T05:26:39.300Z,-4.28
2022-12-15T05:30:59.274Z,-4.45
2022-12-15T05:35:01.384Z,-4.45
2022-12-15T05:39:03.780Z,-4.29
2022-12-15T05:43:06.037Z,-4.73
2022-12-15T05:47:09.162Z,-4.57
2022-12-15T05:51:12.312Z,-4.56
2022-12-15T05:55:13.765Z,-4.73
2022-12-15T05:59:15.834Z,-4.73
2022-12-15T06:03:17.305Z,-4.40
2022-12-15T06:07:19.151Z,-3.82
2022-12-15T06:11:22.249Z,-3.77
2022-12-15T06:15:23.710Z,-3.77
2022-12-15T06:19:25.158Z,-3.95
2022-12-15T06:23:28.458Z,-4.05
2022-12-15T06:27:30.791Z,-3.68
2022-12-15T06:31:32.818Z,-3.76
2022-12-15T06:35:37.880Z,-3.92
2022-12-15T06:39:39.300Z,-3.66
2022-12-15T06:43:41.499Z,-3.43
2022-12-15T06:47:42.999Z,-3.59
2022-12-15T06:51:45.009Z,-3.23
2022-12-15T06:55:47.410Z,-3.63
2022-12-15T06:59:48.859Z,-3.81
2022-12-15T07:03:51.464Z,-3.35
2022-12-15T07:07:53.065Z,-3.10
2022-12-15T07:11:54.600Z,-2.69
2022-12-15T07:16:01.847Z,-3.09
2022-12-15T07:20:07.228Z,-3.01
2022-12-15T07:24:11.866Z,-3.13
2022-12-15T07:28:13.337Z,-3.07
2022-12-15T07:32:15.640Z,-3.24
2022-12-15T07:36:17.049Z,-2.97
2022-12-15T07:40:18.671Z,-3.01
2022-12-15T07:44:21.060Z,-2.63
2022-12-15T07:48:23.739Z,-2.79
2022-12-15T07:52:25.370Z,-2.76
2022-12-15T07:56:26.787Z,-2.80
2022-12-15T08:00:28.724Z,-2.71
2022-12-15T08:04:31.259Z,-2.36
2022-12-15T08:08:34.106Z,-2.56
2022-12-15T08:12:38.819Z,-2.47
2022-12-15T08:16:40.616Z,-2.73
2022-12-15T08:20:42.170Z,-2.45
2022-12-15T08:24:43.835Z,-2.36
2022-12-15T08:28:45.911Z,-2.44
2022-12-15T08:32:51.945Z,-2.53
2022-12-15T08:36:54.210Z,-2.87
2022-12-15T08:40:56.651Z,-2.97
2022-12-15T08:44:58.064Z,-3.04
2022-12-15T08:49:01.287Z,-2.28
2022-12-15T08:53:29.653Z,-2.45
2022-12-15T08:57:24.211Z,-2.09
2022-12-15T09:01:27.470Z,-2.16
2022-12-15T09:05:29.241Z,-1.81
2022-12-15T09:09:30.655Z,-1.93
2022-12-15T09:13:32.915Z,-1.83
2022-12-15T09:17:34.607Z,-2.14
2022-12-15T09:21:36.665Z,-2.05
2022-12-15T09:25:38.081Z,-1.96
2022-12-15T09:29:39.540Z,-1.50
2022-12-15T09:33:42.530Z,-1.64
2022-12-15T09:37:48.439Z,-1.79
2022-12-15T09:41:58.254Z,-1.47
2022-12-15T09:46:06.695Z,-1.18
2022-12-15T09:50:15.315Z,-1.21
2022-12-15T09:54:16.769Z,-1.15
2022-12-15T09:58:41.879Z,-0.88
2022-12-15T10:03:20.552Z,-0.71
2022-12-15T10:07:34.687Z,-0.55
2022-12-15T10:12:08.581Z,-0.62
2022-12-15T10:16:43.326Z,-0.74
2022-12-15T10:20:44.905Z,-0.28
2022-12-15T10:29:40.075Z,-0.19
2022-12-15T10:33:47.102Z,-0.02
2022-12-15T10:37:50.324Z,-0.12
2022-12-15T10:42:14.335Z,-0.42
2022-12-15T10:46:19.980Z,-0.40
2022-12-15T10:50:25.027Z,-0.52
2022-12-15T10:54:48.490Z,-0.08
2022-12-15T10:58:52.798Z,-0.28
2022-12-15T11:02:54.753Z,-0.23
2022-12-15T11:06:59.441Z,0.08
2022-12-15T11:11:19.701Z,0.24
2022-12-15T11:15:21.110Z,0.41
2022-12-15T11:19:40.492Z,0.85
2022-12-15T11:23:51.625Z,0.22
2022-12-15T11:27:57.313Z,0.07
2022-12-15T11:32:04.800Z,-0.01
2022-12-15T11:36:24.495Z,-0.04
2022-12-15T11:40:41.183Z,-0.18
2022-12-15T11:45:01.449Z,-0.79
2022-12-15T11:49:18.163Z,-0.54
2022-12-15T11:53:49.797Z,-0.02
2022-12-15T11:58:08.379Z,-0.43
2022-12-15T12:02:32.325Z,-0.08
2022-12-15T12:06:55.757Z,0.02
2022-12-15T12:11:16.868Z,0.07
2022-12-15T12:15:33.510Z,0.33
2022-12-15T12:19:38.098Z,0.28
2022-12-15T12:23:55.893Z,0.16
2022-12-15T12:28:06.231Z,0.29
2022-12-15T12:32:23.574Z,0.19
2022-12-15T12:36:25.036Z,0.03
2022-12-15T12:40:45.154Z,-0.06
2022-12-15T12:44:46.840Z,0.27
2022-12-15T12:49:22.805Z,-0.16
2022-12-15T12:53:33.459Z,-0.38
2022-12-15T12:57:38.364Z,-0.38
2022-12-15T13:01:40.081Z,-0.42
2022-12-15T13:05:42.910Z,-0.63
2022-12-15T13:09:44.522Z,-0.56
2022-12-15T13:13:53.047Z,-0.13
2022-12-15T13:18:00.446Z,-0.73
2022-12-15T13:22:02.523Z,-0.51
2022-12-15T13:26:05.911Z,-0.29
2022-12-15T13:30:07.363Z,-0.36
2022-12-15T13:34:14.581Z,-0.30
2022-12-15T13:38:19.458Z,-0.08
2022-12-15T13:42:45.389Z,0.11
2022-12-15T13:46:53.033Z,0.03
2022-12-15T13:51:34.115Z,0.08
2022-12-15T13:55:39.239Z,-0.12
2022-12-15T13:59:49.463Z,0.41
2022-12-15T14:04:21.450Z,-0.04
2022-12-15T14:08:25.771Z,0.04
2022-12-15T14:12:27.366Z,-0.08
2022-12-15T14:16:33.752Z,0.09
2022-12-15T14:20:40.509Z,-0.33
2022-12-15T14:24:50.625Z,-0.38
2022-12-15T14:29:01.583Z,-0.44
2022-12-15T14:33:07.997Z,-0.34
2022-12-15T14:37:17.305Z,-0.20
2022-12-15T14:41:28.141Z,-0.26
2022-12-15T14:45:32.357Z,-0.36
2022-12-15T14:49:42.991Z,-0.33
2022-12-15T14:53:49.631Z,-0.36
2022-12-15T14:57:55.059Z,-0.05
2022-12-15T15:02:19.744Z,-0.07
2022-12-15T15:06:22.282Z,0.15
2022-12-15T15:10:29.147Z,-0.02
2022-12-15T15:14:33.829Z,-0.26
2022-12-15T15:18:35.483Z,-0.19
2022-12-15T15:22:47.993Z,0.16
2022-12-15T15:26:49.502Z,-0.23
2022-12-15T15:30:57.312Z,-0.33
2022-12-15T15:34:58.799Z,-0.07
2022-12-15T15:39:01.793Z,0.21
2022-12-15T16:03:37.976Z,0.17
2022-12-15T16:07:40.543Z,0.30
2022-12-15T16:11:43.001Z,0.30
2022-12-15T16:15:44.841Z,0.38
2022-12-15T16:19:46.513Z,0.71
2022-12-15T16:23:48.731Z,0.29
2022-12-15T16:27:50.142Z,0.69
2022-12-15T16:31:51.649Z,0.63
2022-12-15T16:35:53.816Z,0.70
2022-12-15T16:39:55.331Z,0.68
2022-12-15T16:43:56.781Z,0.64
2022-12-15T16:47:58.469Z,0.80
2022-12-15T16:51:59.900Z,0.39
2022-12-15T16:56:04.525Z,0.60
2022-12-15T17:00:18.425Z,0.59
2022-12-15T17:04:21.346Z,0.43
2022-12-15T17:08:33.279Z,0.50
2022-12-15T17:12:35.171Z,0.19
2022-12-15T17:16:36.871Z,0.35
2022-12-15T17:20:38.362Z,0.05
2022-12-15T17:24:42.005Z,0.35
2022-12-15T17:28:43.490Z,0.17
2022-12-15T17:32:45.654Z,-0.21
2022-12-15T17:36:47.221Z,-0.03
2022-12-15T17:40:50.288Z,-0.20
2022-12-15T17:44:52.059Z,0.16
2022-12-15T17:48:53.611Z,0.05
2022-12-15T17:52:55.067Z,0.54
2022-12-15T17:56:56.464Z,0.70
2022-12-15T18:00:57.947Z,0.75
2022-12-15T18:04:59.562Z,0.76
2022-12-15T18:09:01.106Z,0.62
2022-12-15T18:13:03.059Z,0.23
2022-12-15T18:17:05.506Z,0.46
2022-12-15T18:21:16.440Z,0.71
2022-12-15T18:25:26.741Z,0.73
2022-12-15T18:29:28.254Z,0.76
2022-12-15T18:33:30.890Z,0.79
2022-12-15T18:37:34.238Z,0.61
2022-12-15T18:41:35.702Z,0.45
2022-12-15T18:45:37.144Z,0.58
2022-12-15T18:49:38.692Z,0.37
2022-12-15T18:53:41.021Z,-0.38
2022-12-15T18:57:42.515Z,-0.46
2022-12-15T19:01:45.951Z,0.14
2022-12-15T19:05:49.418Z,-0.31
2022-12-15T19:09:50.999Z,-0.33
2022-12-15T19:13:52.438Z,0.03
2022-12-15T19:18:12.819Z,-0.29
2022-12-15T19:22:29.889Z,-0.24
2022-12-15T19:26:31.705Z,-0.06
2022-12-15T19:30:38.489Z,0.17
2022-12-15T19:34:43.395Z,0.51
2022-12-15T19:38:46.680Z,0.46
2022-12-15T19:42:49.217Z,0.41
2022-12-15T19:46:50.662Z,0.33
2022-12-15T19:50:52.526Z,0.45
2022-12-15T19:54:56.637Z,0.50
2022-12-15T19:58:58.058Z,0.81
2022-12-15T20:02:59.576Z,0.59
2022-12-15T20:07:03.799Z,0.53
2022-12-15T20:11:05.378Z,0.56
2022-12-15T20:15:20.297Z,0.66
2022-12-15T20:19:21.773Z,0.61
2022-12-15T20:23:26.356Z,0.64
2022-12-15T20:27:28.293Z,0.65
2022-12-15T20:31:30.023Z,0.72
2022-12-15T20:35:34.618Z,1.06
2022-12-15T20:39:36.273Z,1.13
2022-12-15T20:43:37.709Z,1.18
2022-12-15T20:47:40.785Z,1.07
2022-12-15T20:51:42.236Z,0.77
2022-12-15T20:55:43.949Z,0.93
2022-12-15T20:59:45.406Z,1.05
2022-12-15T21:03:48.094Z,1.27
2022-12-15T21:07:50.214Z,1.32
2022-12-15T21:11:53.942Z,1.22
2022-12-15T21:15:56.227Z,0.99
2022-12-15T21:19:57.727Z,0.85
2022-12-15T21:24:01.356Z,0.38
2022-12-15T21:28:02.756Z,0.35
2022-12-15T21:32:04.219Z,0.53
2022-12-15T21:36:05.988Z,1.07
2022-12-15T21:40:08.236Z,1.20
2022-12-15T21:44:14.676Z,1.29
2022-12-15T21:48:35.111Z,1.04
2022-12-15T21:52:37.672Z,0.84
2022-12-15T21:56:39.299Z,1.19
2022-12-15T22:00:45.406Z,1.00
2022-12-15T22:04:48.747Z,0.82
2022-12-15T22:08:52.354Z,0.91
2022-12-15T22:17:19.213Z,1.37
2022-12-15T22:21:21.233Z,1.29
2022-12-15T22:25:25.014Z,1.05
2022-12-15T22:29:27.665Z,0.20
2022-12-15T22:33:29.157Z,1.00
2022-12-15T22:37:30.722Z,0.87
2022-12-15T22:41:32.901Z,0.58
2022-12-15T22:45:38.260Z,-0.02
2022-12-15T22:49:42.720Z,-0.10
2022-12-15T22:53:44.746Z,0.30
2022-12-15T22:58:15.472Z,-0.12
2022-12-15T23:02:17.089Z,-0.15
2022-12-15T23:06:18.746Z,-0.20
2022-12-15T23:10:39.105Z,-0.43
2022-12-15T23:14:59.283Z,-0.52
2022-12-15T23:19:01.602Z,-0.62
2022-12-15T23:23:03.238Z,-0.81
2022-12-15T23:27:04.910Z,-0.97
2022-12-15T23:31:06.885Z,-1.01
2022-12-15T23:35:08.752Z,-1.27
2022-12-15T23:39:10.177Z,-1.28
2022-12-15T23:43:12.526Z,-1.18
2022-12-15T23:47:14.017Z,-1.39
2022-12-15T23:51:20.323Z,-1.59
2022-12-15T23:55:21.807Z,-0.96
2022-12-15T23:59:23.337Z,-0.92
